Seaford, Delaware
Current Conditions -  °F | °C
As of 10:54 PM on Wednesday 28 Jan 2015 (Local Time) from KGED Reporting Station
Clear Clear  
Wind Chill: 28°   Ceiling: Unl
Heat Index: 28°   Visibility: 10mi
Dew Point:   Wind: 3mph
Humidity: 41%   Direction: 330°NNW
Pressure: 30.3"   Gusts: NA
Location:  38.64°N, 75.61°W
Report Text: KGED 290354Z AUTO 33003KT 10SM CLR M02/M14 A3030 RMK AO2 SLP261 T10221139
Loading
Personal Weather Stations






























Interactive Weather Map New forecast layout! Learn more

10-Day Weather Forecast

Advertisements
Track Severe Weather on mobile